ALT3 KMIA-CYUL
Flight info
| Callsign | ALT3 |
|---|---|
| Flight time | 2h 51m |
| Altitude | 36000 |
| Route | FOLZZ3 ALYRA DCT GRUBR/N0481F370 Y299 SEELO DCT WAALT Q131 EARZZ DCT JAMIE Q133 PBERG CARTR5 |
| Aircraft | B77W/H-SDE1E2E3FGHIJ2J3J4J5M1RWXY/LB1D1 |
Departure
| Time | 2026-05-07 13:42 |
|---|---|
| Airport | Miami International Airport (KMIA) |
Arrival
| Time | 2026-05-07 16:33 |
|---|---|
| Airport | Montreal / Pierre Elliott Trudeau International Airport (CYUL) |
| Time | Latitude | Longitude | Altitude | Speed | Heading |
|---|---|---|---|---|---|
| 2026-05-07 12:51 | 25.79577 | -80.28486 | 26 ft | 0 kts | 119° |
| 2026-05-07 13:28 | 25.79586 | -80.28504 | 31 ft | 3 kts | 119° |
| 2026-05-07 13:28 | 25.79595 | -80.28522 | 31 ft | 3 kts | 119° |
| 2026-05-07 13:29 | 25.79607 | -80.28539 | 30 ft | 3 kts | 154° |
| 2026-05-07 13:29 | 25.79626 | -80.28544 | 32 ft | 3 kts | 191° |
| 2026-05-07 13:29 | 25.79630 | -80.28543 | 32 ft | 0 kts | 201° |
| 2026-05-07 13:33 | 25.79613 | -80.28554 | 32 ft | 8 kts | 212° |
| 2026-05-07 13:33 | 25.79594 | -80.28608 | 27 ft | 8 kts | 267° |
| 2026-05-07 13:33 | 25.79591 | -80.28669 | 27 ft | 8 kts | 267° |
| 2026-05-07 13:33 | 25.79581 | -80.28729 | 28 ft | 8 kts | 254° |
| 2026-05-07 13:34 | 25.79560 | -80.28785 | 28 ft | 8 kts | 242° |
| 2026-05-07 13:34 | 25.79459 | -80.28799 | 30 ft | 1 kts | 162° |
| 2026-05-07 13:34 | 25.79446 | -80.28800 | 27 ft | 5 kts | 189° |
| 2026-05-07 13:35 | 25.79432 | -80.28836 | 27 ft | 7 kts | 276° |
| 2026-05-07 13:35 | 25.79463 | -80.28888 | 28 ft | 10 kts | 302° |
| 2026-05-07 13:35 | 25.79507 | -80.28968 | 28 ft | 15 kts | 301° |
| 2026-05-07 13:35 | 25.79564 | -80.29075 | 30 ft | 18 kts | 301° |
| 2026-05-07 13:36 | 25.79624 | -80.29199 | 28 ft | 18 kts | 298° |
| 2026-05-07 13:36 | 25.79684 | -80.29324 | 27 ft | 19 kts | 298° |
| 2026-05-07 13:36 | 25.79749 | -80.29454 | 26 ft | 19 kts | 301° |
| 2026-05-07 13:36 | 25.79821 | -80.29585 | 25 ft | 21 kts | 300° |
| 2026-05-07 13:37 | 25.79894 | -80.29732 | 24 ft | 22 kts | 296° |
| 2026-05-07 13:37 | 25.79955 | -80.29883 | 23 ft | 15 kts | 291° |
| 2026-05-07 13:37 | 25.79969 | -80.29928 | 22 ft | 0 kts | 287° |
| 2026-05-07 13:38 | 25.79970 | -80.29929 | 20 ft | 1 kts | 287° |
| 2026-05-07 13:38 | 25.79972 | -80.29937 | 20 ft | 2 kts | 287° |
| 2026-05-07 13:39 | 25.79977 | -80.29960 | 20 ft | 5 kts | 282° |
| 2026-05-07 13:39 | 25.79993 | -80.30033 | 22 ft | 14 kts | 284° |
| 2026-05-07 13:39 | 25.80033 | -80.30104 | 26 ft | 4 kts | 351° |
| 2026-05-07 13:39 | 25.80036 | -80.30104 | 24 ft | 1 kts | 358° |
| 2026-05-07 13:40 | 25.80049 | -80.30099 | 25 ft | 1 kts | 24° |
| 2026-05-07 13:40 | 25.80073 | -80.30066 | 25 ft | 5 kts | 91° |
| 2026-05-07 13:40 | 25.80073 | -80.30058 | 25 ft | 0 kts | 90° |
| 2026-05-07 13:41 | 25.80073 | -80.30052 | 24 ft | 0 kts | 90° |
| 2026-05-07 13:41 | 25.80073 | -80.30037 | 24 ft | 12 kts | 90° |
| 2026-05-07 13:41 | 25.80087 | -80.29712 | 23 ft | 84 kts | 86° |
| 2026-05-07 13:41 | 25.80125 | -80.28752 | 30 ft | 160 kts | 88° |
| 2026-05-07 13:42 | 25.80188 | -80.27329 | 287 ft | 202 kts | 85° |
| 2026-05-07 13:42 | 25.80270 | -80.25823 | 1188 ft | 189 kts | 99° |
| 2026-05-07 13:42 | 25.79759 | -80.24525 | 1984 ft | 189 kts | 121° |
| 2026-05-07 13:42 | 25.79102 | -80.23145 | 2291 ft | 216 kts | 118° |
| 2026-05-07 13:43 | 25.78386 | -80.21543 | 2558 ft | 247 kts | 118° |
| 2026-05-07 13:43 | 25.77600 | -80.19783 | 3193 ft | 259 kts | 117° |
| 2026-05-07 13:43 | 25.76780 | -80.17971 | 4018 ft | 265 kts | 118° |
| 2026-05-07 13:43 | 25.75913 | -80.16181 | 4930 ft | 268 kts | 118° |
| 2026-05-07 13:44 | 25.75001 | -80.14351 | 5764 ft | 273 kts | 118° |
| 2026-05-07 13:44 | 25.74246 | -80.12414 | 6421 ft | 279 kts | 99° |
| 2026-05-07 13:44 | 25.74410 | -80.10265 | 7105 ft | 283 kts | 68° |
| 2026-05-07 13:44 | 25.75455 | -80.08452 | 7996 ft | 278 kts | 50° |
| 2026-05-07 13:45 | 25.76737 | -80.06808 | 8680 ft | 285 kts | 50° |
| 2026-05-07 13:45 | 25.78055 | -80.05145 | 9492 ft | 288 kts | 50° |
| 2026-05-07 13:45 | 25.79382 | -80.03481 | 10294 ft | 289 kts | 50° |
| 2026-05-07 13:45 | 25.80704 | -80.01823 | 11028 ft | 293 kts | 49° |
| 2026-05-07 13:46 | 25.82063 | -80.00115 | 11785 ft | 298 kts | 49° |
| 2026-05-07 13:46 | 25.83443 | -79.98376 | 12651 ft | 301 kts | 49° |
| 2026-05-07 13:46 | 25.84831 | -79.96620 | 13560 ft | 304 kts | 49° |
| 2026-05-07 13:46 | 25.86242 | -79.94833 | 14370 ft | 310 kts | 49° |
| 2026-05-07 13:47 | 25.87671 | -79.93021 | 15173 ft | 314 kts | 48° |
| 2026-05-07 13:47 | 25.89124 | -79.91176 | 15963 ft | 320 kts | 47° |
| 2026-05-07 13:47 | 25.90599 | -79.89301 | 16782 ft | 325 kts | 47° |
| 2026-05-07 13:47 | 25.92087 | -79.87360 | 17454 ft | 337 kts | 48° |
| 2026-05-07 13:48 | 25.93606 | -79.85240 | 17642 ft | 364 kts | 50° |
| 2026-05-07 13:48 | 25.95215 | -79.82938 | 17837 ft | 389 kts | 50° |
| 2026-05-07 13:48 | 25.96920 | -79.80489 | 18008 ft | 411 kts | 50° |
| 2026-05-07 13:48 | 25.98704 | -79.77930 | 18466 ft | 424 kts | 50° |
| 2026-05-07 13:49 | 26.00509 | -79.75349 | 18967 ft | 432 kts | 49° |
| 2026-05-07 13:49 | 26.02373 | -79.72692 | 19571 ft | 437 kts | 49° |
| 2026-05-07 13:49 | 26.04255 | -79.70015 | 20239 ft | 441 kts | 49° |
| 2026-05-07 13:49 | 26.06159 | -79.67310 | 20860 ft | 446 kts | 49° |
| 2026-05-07 13:50 | 26.08082 | -79.64580 | 21463 ft | 451 kts | 49° |
| 2026-05-07 13:50 | 26.10032 | -79.61811 | 22057 ft | 457 kts | 49° |
| 2026-05-07 13:50 | 26.12003 | -79.59009 | 22646 ft | 462 kts | 49° |
| 2026-05-07 13:50 | 26.13992 | -79.56180 | 23225 ft | 467 kts | 49° |
| 2026-05-07 13:51 | 26.16002 | -79.53319 | 23769 ft | 472 kts | 48° |
| 2026-05-07 13:51 | 26.18036 | -79.50421 | 24247 ft | 476 kts | 48° |
| 2026-05-07 13:51 | 26.20058 | -79.47536 | 24728 ft | 480 kts | 48° |
| 2026-05-07 13:51 | 26.22122 | -79.44591 | 25211 ft | 484 kts | 48° |
| 2026-05-07 13:52 | 26.24200 | -79.41626 | 25702 ft | 487 kts | 48° |
| 2026-05-07 13:52 | 26.26306 | -79.38659 | 26208 ft | 488 kts | 46° |
| 2026-05-07 13:52 | 26.28630 | -79.35906 | 26695 ft | 488 kts | 39° |
| 2026-05-07 13:52 | 26.31179 | -79.33415 | 27166 ft | 488 kts | 34° |
| 2026-05-07 13:53 | 26.33928 | -79.31190 | 27621 ft | 488 kts | 28° |
| 2026-05-07 13:53 | 26.36799 | -79.29156 | 28066 ft | 490 kts | 27° |
| 2026-05-07 13:53 | 26.39701 | -79.27129 | 28499 ft | 493 kts | 27° |
| 2026-05-07 13:53 | 26.42620 | -79.25092 | 28917 ft | 496 kts | 27° |
| 2026-05-07 13:54 | 26.45556 | -79.23032 | 29330 ft | 499 kts | 28° |
| 2026-05-07 13:54 | 26.48502 | -79.20949 | 29703 ft | 503 kts | 27° |
| 2026-05-07 13:54 | 26.51468 | -79.18841 | 30031 ft | 507 kts | 28° |
| 2026-05-07 13:54 | 26.54442 | -79.16717 | 30468 ft | 506 kts | 28° |
| 2026-05-07 13:55 | 26.57364 | -79.14623 | 30975 ft | 504 kts | 28° |
| 2026-05-07 13:55 | 26.60304 | -79.12515 | 31501 ft | 501 kts | 28° |
| 2026-05-07 13:55 | 26.63232 | -79.10416 | 31997 ft | 499 kts | 28° |
| 2026-05-07 13:55 | 26.66157 | -79.08319 | 32457 ft | 499 kts | 28° |
| 2026-05-07 13:56 | 26.69073 | -79.06230 | 32901 ft | 498 kts | 28° |
| 2026-05-07 13:56 | 26.71993 | -79.04136 | 33367 ft | 497 kts | 28° |
| 2026-05-07 13:56 | 26.74894 | -79.02055 | 33836 ft | 495 kts | 28° |
| 2026-05-07 13:56 | 26.77799 | -78.99969 | 34205 ft | 495 kts | 28° |
| 2026-05-07 13:57 | 26.80701 | -78.97886 | 34555 ft | 495 kts | 28° |
| 2026-05-07 13:57 | 26.83594 | -78.95806 | 34927 ft | 494 kts | 28° |
| 2026-05-07 13:57 | 26.86481 | -78.93729 | 35331 ft | 492 kts | 28° |
| 2026-05-07 13:57 | 26.89356 | -78.91660 | 35720 ft | 490 kts | 28° |
| 2026-05-07 13:58 | 26.92218 | -78.89598 | 36068 ft | 489 kts | 28° |
| 2026-05-07 13:58 | 26.97998 | -78.85436 | 36090 ft | 494 kts | 28° |
| 2026-05-07 13:59 | 27.03720 | -78.81303 | 36094 ft | 488 kts | 27° |
| 2026-05-07 13:59 | 27.09429 | -78.77177 | 36088 ft | 488 kts | 27° |
| 2026-05-07 14:00 | 27.15146 | -78.73042 | 36088 ft | 489 kts | 27° |
| 2026-05-07 14:00 | 27.20865 | -78.68899 | 36096 ft | 489 kts | 27° |
| 2026-05-07 14:01 | 27.26689 | -78.64977 | 36081 ft | 483 kts | 19° |
| 2026-05-07 14:01 | 27.32995 | -78.62687 | 36097 ft | 473 kts | 5° |
| 2026-05-07 14:02 | 27.39499 | -78.61786 | 36091 ft | 469 kts | 1° |
| 2026-05-07 14:02 | 27.45953 | -78.61024 | 36087 ft | 470 kts | 1° |
| 2026-05-07 14:03 | 27.52455 | -78.60221 | 36087 ft | 470 kts | 1° |
| 2026-05-07 14:03 | 27.58955 | -78.59386 | 36090 ft | 470 kts | 1° |
| 2026-05-07 14:04 | 27.65467 | -78.58537 | 36094 ft | 470 kts | 1° |
| 2026-05-07 14:04 | 27.71976 | -78.57688 | 36082 ft | 470 kts | 1° |
| 2026-05-07 14:05 | 27.78466 | -78.56841 | 36090 ft | 469 kts | 1° |
| 2026-05-07 14:05 | 27.84952 | -78.55995 | 36087 ft | 469 kts | 1° |
| 2026-05-07 14:06 | 27.91387 | -78.55155 | 36104 ft | 468 kts | 1° |
| 2026-05-07 14:06 | 27.97869 | -78.54307 | 36088 ft | 468 kts | 1° |
| 2026-05-07 14:07 | 28.03252 | -78.53603 | 36085 ft | 468 kts | 1° |
| 2026-05-07 14:07 | 28.09724 | -78.52755 | 36089 ft | 467 kts | 1° |
| 2026-05-07 14:08 | 28.16182 | -78.51908 | 36084 ft | 467 kts | 1° |
| 2026-05-07 14:08 | 28.22643 | -78.51059 | 36085 ft | 467 kts | 0° |
| 2026-05-07 14:09 | 28.29086 | -78.50211 | 36086 ft | 466 kts | 0° |
| 2026-05-07 14:09 | 28.35529 | -78.49363 | 36088 ft | 465 kts | 0° |
| 2026-05-07 14:10 | 28.41926 | -78.48520 | 36087 ft | 465 kts | 0° |
| 2026-05-07 14:10 | 28.48357 | -78.47671 | 36101 ft | 465 kts | 0° |
| 2026-05-07 14:11 | 28.54791 | -78.46821 | 36085 ft | 466 kts | 0° |
| 2026-05-07 14:11 | 28.61238 | -78.45968 | 36082 ft | 466 kts | 0° |
| 2026-05-07 14:12 | 28.67682 | -78.45114 | 36084 ft | 466 kts | 0° |
| 2026-05-07 14:12 | 28.74134 | -78.44258 | 36086 ft | 467 kts | 0° |
| 2026-05-07 14:13 | 28.80604 | -78.43399 | 36086 ft | 468 kts | 0° |
| 2026-05-07 14:13 | 28.87084 | -78.42538 | 36080 ft | 469 kts | 0° |
| 2026-05-07 14:14 | 28.93532 | -78.41679 | 36079 ft | 469 kts | 0° |
| 2026-05-07 14:14 | 29.00024 | -78.40813 | 36080 ft | 470 kts | 0° |
| 2026-05-07 14:15 | 29.06527 | -78.39945 | 36087 ft | 471 kts | 360° |
| 2026-05-07 14:15 | 29.13037 | -78.39075 | 36083 ft | 471 kts | 360° |
| 2026-05-07 14:16 | 29.19564 | -78.38201 | 36078 ft | 471 kts | 360° |
| 2026-05-07 14:16 | 29.26074 | -78.37328 | 36076 ft | 471 kts | 360° |
| 2026-05-07 14:17 | 29.32582 | -78.36455 | 36098 ft | 471 kts | 360° |
| 2026-05-07 14:17 | 29.39086 | -78.35581 | 36079 ft | 471 kts | 359° |
| 2026-05-07 14:18 | 29.45540 | -78.34851 | 36065 ft | 464 kts | 353° |
| 2026-05-07 14:18 | 29.51892 | -78.35451 | 36078 ft | 453 kts | 343° |
| 2026-05-07 14:19 | 29.57942 | -78.37224 | 36081 ft | 447 kts | 338° |
| 2026-05-07 14:19 | 29.63915 | -78.39222 | 36072 ft | 447 kts | 338° |
| 2026-05-07 14:20 | 29.69869 | -78.41191 | 36071 ft | 448 kts | 338° |
| 2026-05-07 14:20 | 29.75869 | -78.43148 | 36066 ft | 448 kts | 338° |
| 2026-05-07 14:21 | 29.81870 | -78.45101 | 36069 ft | 448 kts | 338° |
| 2026-05-07 14:21 | 29.87874 | -78.47057 | 36069 ft | 448 kts | 338° |
| 2026-05-07 14:22 | 29.93878 | -78.49017 | 36072 ft | 449 kts | 338° |
| 2026-05-07 14:22 | 29.99896 | -78.50984 | 36064 ft | 449 kts | 338° |
| 2026-05-07 14:23 | 30.05883 | -78.52944 | 36063 ft | 450 kts | 338° |
| 2026-05-07 14:23 | 30.11944 | -78.54773 | 36058 ft | 455 kts | 344° |
| 2026-05-07 14:24 | 30.18323 | -78.55321 | 36063 ft | 464 kts | 354° |
| 2026-05-07 14:24 | 30.24814 | -78.54589 | 36061 ft | 471 kts | 1° |
| 2026-05-07 14:25 | 30.31316 | -78.53560 | 36059 ft | 471 kts | 0° |
| 2026-05-07 14:25 | 30.37784 | -78.52604 | 36060 ft | 471 kts | 0° |
| 2026-05-07 14:26 | 30.44307 | -78.51656 | 36089 ft | 474 kts | 0° |
| 2026-05-07 14:26 | 30.47584 | -78.51139 | 36348 ft | 475 kts | 1° |
| 2026-05-07 14:26 | 30.50853 | -78.50604 | 36733 ft | 473 kts | 1° |
| 2026-05-07 14:26 | 30.54104 | -78.50066 | 37082 ft | 472 kts | 0° |
| 2026-05-07 14:27 | 30.57370 | -78.49529 | 37040 ft | 475 kts | 0° |
| 2026-05-07 14:27 | 30.63878 | -78.48463 | 37043 ft | 469 kts | 0° |
| 2026-05-07 14:28 | 30.70315 | -78.47415 | 37052 ft | 466 kts | 0° |
| 2026-05-07 14:28 | 30.76689 | -78.46383 | 37063 ft | 466 kts | 0° |
| 2026-05-07 14:29 | 30.83116 | -78.45342 | 37057 ft | 467 kts | 0° |
| 2026-05-07 14:29 | 30.89569 | -78.44293 | 37053 ft | 469 kts | 0° |
| 2026-05-07 14:30 | 30.96050 | -78.43237 | 37049 ft | 470 kts | 0° |
| 2026-05-07 14:30 | 31.02540 | -78.42177 | 37058 ft | 472 kts | 0° |
| 2026-05-07 14:31 | 31.09059 | -78.41111 | 37045 ft | 473 kts | 0° |
| 2026-05-07 14:31 | 31.15589 | -78.40042 | 37042 ft | 474 kts | 0° |
| 2026-05-07 14:32 | 31.22076 | -78.38978 | 37039 ft | 475 kts | 0° |
| 2026-05-07 14:32 | 31.28629 | -78.37901 | 37057 ft | 475 kts | 0° |
| 2026-05-07 14:33 | 31.35179 | -78.36825 | 37047 ft | 475 kts | 0° |
| 2026-05-07 14:33 | 31.41737 | -78.35745 | 37043 ft | 476 kts | 0° |
| 2026-05-07 14:34 | 31.48296 | -78.34664 | 37037 ft | 476 kts | 0° |
| 2026-05-07 14:34 | 31.54859 | -78.33580 | 37065 ft | 476 kts | 0° |
| 2026-05-07 14:35 | 31.61427 | -78.32494 | 37048 ft | 476 kts | 360° |
| 2026-05-07 14:35 | 31.67962 | -78.31412 | 37029 ft | 477 kts | 360° |
| 2026-05-07 14:36 | 31.74532 | -78.30323 | 37032 ft | 476 kts | 360° |
| 2026-05-07 14:36 | 31.81094 | -78.29233 | 37055 ft | 476 kts | 360° |
| 2026-05-07 14:37 | 31.87676 | -78.28139 | 37024 ft | 477 kts | 360° |
| 2026-05-07 14:37 | 31.97550 | -78.26493 | 37023 ft | 478 kts | 360° |
| 2026-05-07 14:38 | 32.04142 | -78.25375 | 37016 ft | 480 kts | 1° |
| 2026-05-07 14:38 | 32.10703 | -78.23997 | 37021 ft | 483 kts | 2° |
| 2026-05-07 14:39 | 32.17323 | -78.22508 | 37020 ft | 484 kts | 2° |
| 2026-05-07 14:39 | 32.23965 | -78.21038 | 37012 ft | 485 kts | 2° |
| 2026-05-07 14:40 | 32.30621 | -78.19592 | 37006 ft | 486 kts | 2° |
| 2026-05-07 14:40 | 32.37241 | -78.18161 | 37013 ft | 487 kts | 1° |
| 2026-05-07 14:41 | 32.43902 | -78.16718 | 36996 ft | 486 kts | 1° |
| 2026-05-07 14:41 | 32.50557 | -78.15272 | 36991 ft | 485 kts | 1° |
| 2026-05-07 14:42 | 32.57198 | -78.13828 | 36989 ft | 484 kts | 1° |
| 2026-05-07 14:42 | 32.63830 | -78.12383 | 36988 ft | 483 kts | 1° |
| 2026-05-07 14:43 | 32.70444 | -78.10941 | 36976 ft | 482 kts | 1° |
| 2026-05-07 14:43 | 32.77002 | -78.09508 | 36979 ft | 481 kts | 1° |
| 2026-05-07 14:44 | 32.83577 | -78.08070 | 36973 ft | 480 kts | 1° |
| 2026-05-07 14:44 | 32.90152 | -78.06630 | 36972 ft | 480 kts | 1° |
| 2026-05-07 14:45 | 32.96720 | -78.05189 | 36968 ft | 480 kts | 1° |
| 2026-05-07 14:45 | 33.03289 | -78.03746 | 36968 ft | 480 kts | 1° |
| 2026-05-07 14:46 | 33.09878 | -78.02296 | 36968 ft | 481 kts | 1° |
| 2026-05-07 14:46 | 33.16464 | -78.00845 | 36965 ft | 482 kts | 1° |
| 2026-05-07 14:47 | 33.23028 | -77.99397 | 36958 ft | 483 kts | 1° |
| 2026-05-07 14:47 | 33.29648 | -77.97932 | 36960 ft | 483 kts | 1° |
| 2026-05-07 14:48 | 33.36235 | -77.96473 | 36956 ft | 484 kts | 1° |
| 2026-05-07 14:48 | 33.42870 | -77.95002 | 36960 ft | 485 kts | 1° |
| 2026-05-07 14:49 | 33.49503 | -77.93528 | 36950 ft | 485 kts | 1° |
| 2026-05-07 14:49 | 33.56147 | -77.92049 | 36944 ft | 485 kts | 1° |
| 2026-05-07 14:50 | 33.62782 | -77.90570 | 36962 ft | 485 kts | 1° |
| 2026-05-07 14:50 | 33.69420 | -77.89089 | 36944 ft | 486 kts | 1° |
| 2026-05-07 14:51 | 33.76068 | -77.87603 | 36936 ft | 487 kts | 1° |
| 2026-05-07 14:51 | 33.82690 | -77.86079 | 36931 ft | 489 kts | 2° |
| 2026-05-07 14:52 | 33.89366 | -77.84387 | 36948 ft | 490 kts | 2° |
| 2026-05-07 14:52 | 33.96043 | -77.82673 | 36939 ft | 491 kts | 2° |
| 2026-05-07 14:53 | 34.02741 | -77.80971 | 36937 ft | 491 kts | 2° |
| 2026-05-07 14:53 | 34.09392 | -77.79289 | 36938 ft | 491 kts | 2° |
| 2026-05-07 14:54 | 34.16091 | -77.77593 | 36935 ft | 492 kts | 1° |
| 2026-05-07 14:54 | 34.22802 | -77.75892 | 36945 ft | 493 kts | 1° |
| 2026-05-07 14:55 | 34.26852 | -77.74864 | 36935 ft | 494 kts | 1° |
| 2026-05-07 14:55 | 34.28677 | -77.74400 | 36939 ft | 494 kts | 1° |
| 2026-05-07 14:56 | 34.36515 | -77.72404 | 36931 ft | 495 kts | 1° |
| 2026-05-07 14:56 | 34.42178 | -77.70960 | 36937 ft | 497 kts | 1° |
| 2026-05-07 14:57 | 34.48963 | -77.69228 | 36933 ft | 499 kts | 1° |
| 2026-05-07 14:57 | 34.55771 | -77.67241 | 36924 ft | 511 kts | 7° |
| 2026-05-07 14:58 | 34.62387 | -77.63862 | 36966 ft | 525 kts | 16° |
| 2026-05-07 14:58 | 34.68949 | -77.59861 | 36930 ft | 529 kts | 17° |
| 2026-05-07 14:59 | 34.75518 | -77.55841 | 36928 ft | 527 kts | 17° |
| 2026-05-07 14:59 | 34.82083 | -77.51882 | 36920 ft | 525 kts | 16° |
| 2026-05-07 15:00 | 34.88637 | -77.47955 | 36933 ft | 524 kts | 15° |
| 2026-05-07 15:00 | 34.95185 | -77.44031 | 36925 ft | 524 kts | 15° |
| 2026-05-07 15:01 | 35.01720 | -77.40102 | 36925 ft | 523 kts | 15° |
| 2026-05-07 15:01 | 35.08244 | -77.36170 | 36923 ft | 522 kts | 15° |
| 2026-05-07 15:02 | 35.14724 | -77.32258 | 36927 ft | 523 kts | 15° |
| 2026-05-07 15:02 | 35.21293 | -77.28285 | 36926 ft | 524 kts | 15° |
| 2026-05-07 15:03 | 35.27824 | -77.24328 | 36922 ft | 524 kts | 15° |
| 2026-05-07 15:03 | 35.34330 | -77.20378 | 36919 ft | 525 kts | 15° |
| 2026-05-07 15:04 | 35.40875 | -77.16397 | 36912 ft | 525 kts | 15° |
| 2026-05-07 15:04 | 35.47419 | -77.12409 | 36912 ft | 525 kts | 15° |
| 2026-05-07 15:05 | 35.53965 | -77.08413 | 36906 ft | 525 kts | 15° |
| 2026-05-07 15:05 | 35.60520 | -77.04405 | 36916 ft | 527 kts | 15° |
| 2026-05-07 15:06 | 35.67087 | -77.00381 | 36913 ft | 527 kts | 15° |
| 2026-05-07 15:06 | 35.73653 | -76.96350 | 36910 ft | 527 kts | 15° |
| 2026-05-07 15:07 | 35.80214 | -76.92314 | 36918 ft | 527 kts | 15° |
| 2026-05-07 15:07 | 35.86794 | -76.88260 | 36904 ft | 529 kts | 15° |
| 2026-05-07 15:08 | 35.93361 | -76.84352 | 36915 ft | 522 kts | 12° |
| 2026-05-07 15:08 | 36.00037 | -76.80892 | 36901 ft | 519 kts | 10° |
| 2026-05-07 15:09 | 36.06721 | -76.77522 | 36909 ft | 519 kts | 9° |
| 2026-05-07 15:09 | 36.13409 | -76.74112 | 36910 ft | 520 kts | 10° |
| 2026-05-07 15:10 | 36.20100 | -76.70655 | 36913 ft | 520 kts | 10° |
| 2026-05-07 15:10 | 36.26792 | -76.67181 | 36934 ft | 521 kts | 10° |
| 2026-05-07 15:11 | 36.33449 | -76.63720 | 36923 ft | 522 kts | 10° |
| 2026-05-07 15:11 | 36.40160 | -76.60226 | 36924 ft | 523 kts | 10° |
| 2026-05-07 15:12 | 36.46874 | -76.56726 | 36930 ft | 523 kts | 10° |
| 2026-05-07 15:12 | 36.53602 | -76.53214 | 36941 ft | 526 kts | 10° |
| 2026-05-07 15:13 | 36.60362 | -76.49679 | 36965 ft | 528 kts | 10° |
| 2026-05-07 15:13 | 36.67125 | -76.46130 | 36964 ft | 527 kts | 10° |
| 2026-05-07 15:14 | 36.73884 | -76.42575 | 36967 ft | 527 kts | 10° |
| 2026-05-07 15:14 | 36.80584 | -76.39047 | 36962 ft | 526 kts | 10° |
| 2026-05-07 15:15 | 36.87331 | -76.35489 | 36952 ft | 525 kts | 10° |
| 2026-05-07 15:15 | 36.94063 | -76.31933 | 36973 ft | 525 kts | 10° |
| 2026-05-07 15:16 | 37.00804 | -76.28367 | 36956 ft | 526 kts | 10° |
| 2026-05-07 15:16 | 37.07507 | -76.24812 | 36955 ft | 527 kts | 10° |
| 2026-05-07 15:17 | 37.14271 | -76.21218 | 36952 ft | 528 kts | 10° |
| 2026-05-07 15:17 | 37.21051 | -76.17609 | 36953 ft | 530 kts | 10° |
| 2026-05-07 15:18 | 37.27850 | -76.13981 | 36939 ft | 531 kts | 10° |
| 2026-05-07 15:18 | 37.34655 | -76.10341 | 36942 ft | 531 kts | 11° |
| 2026-05-07 15:19 | 37.41418 | -76.06718 | 36925 ft | 533 kts | 10° |
| 2026-05-07 15:19 | 37.48241 | -76.03056 | 36931 ft | 533 kts | 10° |
| 2026-05-07 15:20 | 37.55082 | -75.99375 | 36949 ft | 534 kts | 10° |
| 2026-05-07 15:20 | 37.61868 | -75.95421 | 36959 ft | 545 kts | 18° |
| 2026-05-07 15:21 | 37.68354 | -75.90194 | 36967 ft | 555 kts | 23° |
| 2026-05-07 15:21 | 37.74751 | -75.84738 | 36965 ft | 555 kts | 23° |
| 2026-05-07 15:22 | 37.81167 | -75.79329 | 36983 ft | 554 kts | 22° |
| 2026-05-07 15:22 | 37.87605 | -75.73965 | 36963 ft | 553 kts | 22° |
| 2026-05-07 15:23 | 37.93996 | -75.68641 | 36959 ft | 553 kts | 22° |
| 2026-05-07 15:23 | 38.00411 | -75.63276 | 36947 ft | 552 kts | 22° |
| 2026-05-07 15:24 | 38.06818 | -75.57905 | 36958 ft | 554 kts | 22° |
| 2026-05-07 15:24 | 38.13258 | -75.52492 | 36969 ft | 555 kts | 22° |
| 2026-05-07 15:25 | 38.19714 | -75.47054 | 36978 ft | 557 kts | 22° |
| 2026-05-07 15:25 | 38.26368 | -75.42313 | 36954 ft | 538 kts | 9° |
| 2026-05-07 15:26 | 38.29836 | -75.40667 | 36972 ft | 527 kts | 4° |
| 2026-05-07 15:26 | 38.33333 | -75.39429 | 36965 ft | 514 kts | 357° |
| 2026-05-07 15:26 | 38.40308 | -75.37980 | 36976 ft | 506 kts | 354° |
| 2026-05-07 15:27 | 38.47288 | -75.36612 | 36971 ft | 510 kts | 354° |
| 2026-05-07 15:27 | 38.54324 | -75.35149 | 36974 ft | 513 kts | 355° |
| 2026-05-07 15:28 | 38.61381 | -75.33645 | 36968 ft | 514 kts | 355° |
| 2026-05-07 15:28 | 38.68409 | -75.32150 | 36975 ft | 516 kts | 355° |
| 2026-05-07 15:29 | 38.75513 | -75.30263 | 36961 ft | 534 kts | 3° |
| 2026-05-07 15:29 | 38.82561 | -75.26654 | 36954 ft | 557 kts | 16° |
| 2026-05-07 15:30 | 38.89365 | -75.21778 | 37006 ft | 561 kts | 18° |
| 2026-05-07 15:30 | 38.96145 | -75.16787 | 36952 ft | 560 kts | 18° |
| 2026-05-07 15:31 | 39.02887 | -75.11929 | 36944 ft | 558 kts | 17° |
| 2026-05-07 15:31 | 39.09666 | -75.07095 | 36975 ft | 557 kts | 17° |
| 2026-05-07 15:32 | 39.16444 | -75.02245 | 36963 ft | 556 kts | 17° |
| 2026-05-07 15:32 | 39.23207 | -74.97384 | 36965 ft | 555 kts | 17° |
| 2026-05-07 15:33 | 39.29836 | -74.92107 | 36972 ft | 568 kts | 24° |
| 2026-05-07 15:33 | 39.36301 | -74.86169 | 36967 ft | 572 kts | 25° |
| 2026-05-07 15:34 | 39.42763 | -74.80151 | 36961 ft | 573 kts | 25° |
| 2026-05-07 15:34 | 39.49272 | -74.74156 | 36989 ft | 575 kts | 24° |
| 2026-05-07 15:35 | 39.55824 | -74.68158 | 36958 ft | 578 kts | 24° |
| 2026-05-07 15:35 | 39.62401 | -74.62124 | 36982 ft | 580 kts | 25° |
| 2026-05-07 15:36 | 39.68950 | -74.56092 | 36954 ft | 581 kts | 25° |
| 2026-05-07 15:36 | 39.75543 | -74.49999 | 36964 ft | 581 kts | 25° |
| 2026-05-07 15:37 | 39.82137 | -74.43892 | 36961 ft | 581 kts | 25° |
| 2026-05-07 15:37 | 39.88718 | -74.37786 | 37003 ft | 582 kts | 25° |
| 2026-05-07 15:38 | 39.95319 | -74.31646 | 36964 ft | 582 kts | 25° |
| 2026-05-07 15:38 | 40.01903 | -74.25504 | 36951 ft | 582 kts | 25° |
| 2026-05-07 15:39 | 40.08497 | -74.19343 | 36977 ft | 583 kts | 25° |
| 2026-05-07 15:39 | 40.15100 | -74.13163 | 36962 ft | 584 kts | 25° |
| 2026-05-07 15:40 | 40.20584 | -74.08015 | 36950 ft | 585 kts | 25° |
| 2026-05-07 15:40 | 40.28279 | -74.00773 | 36955 ft | 586 kts | 25° |
| 2026-05-07 15:41 | 40.33868 | -73.95644 | 36946 ft | 579 kts | 21° |
| 2026-05-07 15:41 | 40.40827 | -73.90792 | 36929 ft | 562 kts | 11° |
| 2026-05-07 15:42 | 40.44386 | -73.88682 | 37035 ft | 562 kts | 10° |
| 2026-05-07 15:42 | 40.47963 | -73.86566 | 36984 ft | 565 kts | 11° |
| 2026-05-07 15:42 | 40.55115 | -73.82196 | 36933 ft | 566 kts | 12° |
| 2026-05-07 15:43 | 40.62251 | -73.77926 | 36989 ft | 554 kts | 6° |
| 2026-05-07 15:43 | 40.65854 | -73.76280 | 36957 ft | 542 kts | 0° |
| 2026-05-07 15:43 | 40.69464 | -73.75125 | 36954 ft | 529 kts | 355° |
| 2026-05-07 15:44 | 40.76613 | -73.73160 | 36931 ft | 527 kts | 355° |
| 2026-05-07 15:44 | 40.83797 | -73.71158 | 36996 ft | 528 kts | 356° |
| 2026-05-07 15:45 | 40.90997 | -73.69080 | 36924 ft | 530 kts | 356° |
| 2026-05-07 15:45 | 40.98202 | -73.66968 | 36929 ft | 531 kts | 356° |
| 2026-05-07 15:46 | 41.09043 | -73.63792 | 36920 ft | 531 kts | 356° |
| 2026-05-07 15:47 | 41.16223 | -73.61685 | 36911 ft | 532 kts | 356° |
| 2026-05-07 15:47 | 41.23471 | -73.59553 | 37010 ft | 532 kts | 356° |
| 2026-05-07 15:48 | 41.30705 | -73.57671 | 36929 ft | 520 kts | 350° |
| 2026-05-07 15:48 | 41.37865 | -73.56684 | 36939 ft | 516 kts | 348° |
| 2026-05-07 15:49 | 41.45017 | -73.55811 | 36980 ft | 517 kts | 349° |
| 2026-05-07 15:49 | 41.52201 | -73.54891 | 36923 ft | 519 kts | 349° |
| 2026-05-07 15:50 | 41.59404 | -73.53912 | 36932 ft | 520 kts | 350° |
| 2026-05-07 15:50 | 41.66555 | -73.52928 | 36930 ft | 520 kts | 350° |
| 2026-05-07 15:51 | 41.73761 | -73.51940 | 36918 ft | 522 kts | 349° |
| 2026-05-07 15:51 | 41.80989 | -73.50949 | 36920 ft | 522 kts | 350° |
| 2026-05-07 15:52 | 41.88236 | -73.49957 | 36919 ft | 524 kts | 351° |
| 2026-05-07 15:52 | 41.95488 | -73.48958 | 36920 ft | 523 kts | 351° |
| 2026-05-07 15:53 | 42.02696 | -73.47961 | 36966 ft | 523 kts | 351° |
| 2026-05-07 15:53 | 42.09940 | -73.46957 | 36903 ft | 523 kts | 351° |
| 2026-05-07 15:54 | 42.17174 | -73.45955 | 36870 ft | 521 kts | 351° |
| 2026-05-07 15:54 | 42.24395 | -73.44955 | 36972 ft | 523 kts | 352° |
| 2026-05-07 15:55 | 42.31679 | -73.43950 | 36902 ft | 529 kts | 352° |
| 2026-05-07 15:55 | 42.39000 | -73.42924 | 36899 ft | 526 kts | 352° |
| 2026-05-07 15:56 | 42.46273 | -73.41898 | 36960 ft | 525 kts | 352° |
| 2026-05-07 15:56 | 42.53543 | -73.40880 | 36901 ft | 524 kts | 352° |
| 2026-05-07 15:57 | 42.60734 | -73.39869 | 36926 ft | 523 kts | 352° |
| 2026-05-07 15:57 | 42.67958 | -73.38852 | 36917 ft | 521 kts | 353° |
| 2026-05-07 15:58 | 42.75158 | -73.37838 | 36920 ft | 519 kts | 353° |
| 2026-05-07 15:58 | 42.82356 | -73.36822 | 36976 ft | 520 kts | 353° |
| 2026-05-07 15:59 | 42.89575 | -73.35800 | 36916 ft | 522 kts | 353° |
| 2026-05-07 15:59 | 42.96799 | -73.34774 | 36914 ft | 521 kts | 353° |
| 2026-05-07 16:00 | 43.03874 | -73.34625 | 36927 ft | 504 kts | 344° |
| 2026-05-07 16:00 | 43.10862 | -73.35319 | 36915 ft | 502 kts | 343° |
| 2026-05-07 16:01 | 43.17845 | -73.36033 | 36896 ft | 503 kts | 343° |
| 2026-05-07 16:01 | 43.24844 | -73.36685 | 36910 ft | 504 kts | 344° |
| 2026-05-07 16:02 | 43.31849 | -73.37311 | 36909 ft | 503 kts | 344° |
| 2026-05-07 16:02 | 43.38836 | -73.37935 | 36905 ft | 503 kts | 344° |
| 2026-05-07 16:03 | 43.45789 | -73.38564 | 36896 ft | 504 kts | 344° |
| 2026-05-07 16:03 | 43.49319 | -73.38888 | 36297 ft | 513 kts | 344° |
| 2026-05-07 16:03 | 43.52885 | -73.39218 | 35613 ft | 513 kts | 344° |
| 2026-05-07 16:03 | 43.56456 | -73.39537 | 34832 ft | 513 kts | 343° |
| 2026-05-07 16:04 | 43.60016 | -73.39855 | 34154 ft | 511 kts | 343° |
| 2026-05-07 16:04 | 43.63508 | -73.40157 | 33566 ft | 493 kts | 342° |
| 2026-05-07 16:04 | 43.66866 | -73.40447 | 33006 ft | 476 kts | 342° |
| 2026-05-07 16:04 | 43.70154 | -73.40751 | 32510 ft | 472 kts | 341° |
| 2026-05-07 16:05 | 43.73457 | -73.41103 | 32036 ft | 479 kts | 341° |
| 2026-05-07 16:05 | 43.76806 | -73.41498 | 31521 ft | 486 kts | 341° |
| 2026-05-07 16:05 | 43.80146 | -73.41899 | 31081 ft | 489 kts | 341° |
| 2026-05-07 16:05 | 43.83544 | -73.42296 | 30509 ft | 488 kts | 341° |
| 2026-05-07 16:06 | 43.86887 | -73.42667 | 29952 ft | 473 kts | 341° |
| 2026-05-07 16:06 | 43.90109 | -73.43006 | 29385 ft | 457 kts | 341° |
| 2026-05-07 16:06 | 43.93248 | -73.43350 | 28882 ft | 450 kts | 341° |
| 2026-05-07 16:06 | 43.96349 | -73.43704 | 28404 ft | 444 kts | 340° |
| 2026-05-07 16:07 | 43.99412 | -73.44061 | 27960 ft | 440 kts | 341° |
| 2026-05-07 16:07 | 44.02456 | -73.44419 | 27440 ft | 436 kts | 341° |
| 2026-05-07 16:07 | 44.05471 | -73.44772 | 26938 ft | 432 kts | 341° |
| 2026-05-07 16:07 | 44.08455 | -73.45119 | 26450 ft | 428 kts | 341° |
| 2026-05-07 16:08 | 44.11411 | -73.45459 | 25977 ft | 424 kts | 341° |
| 2026-05-07 16:08 | 44.14329 | -73.45797 | 25493 ft | 419 kts | 341° |
| 2026-05-07 16:08 | 44.17222 | -73.46131 | 25078 ft | 414 kts | 343° |
| 2026-05-07 16:08 | 44.20088 | -73.46462 | 24628 ft | 411 kts | 343° |
| 2026-05-07 16:09 | 44.22896 | -73.46786 | 24173 ft | 409 kts | 343° |
| 2026-05-07 16:09 | 44.25761 | -73.47118 | 23713 ft | 407 kts | 343° |
| 2026-05-07 16:09 | 44.28523 | -73.47435 | 23205 ft | 398 kts | 343° |
| 2026-05-07 16:09 | 44.31256 | -73.47745 | 22716 ft | 391 kts | 343° |
| 2026-05-07 16:10 | 44.33959 | -73.48059 | 22273 ft | 388 kts | 343° |
| 2026-05-07 16:10 | 44.36647 | -73.48374 | 21822 ft | 386 kts | 343° |
| 2026-05-07 16:10 | 44.39320 | -73.48688 | 21424 ft | 384 kts | 344° |
| 2026-05-07 16:10 | 44.41982 | -73.48999 | 20960 ft | 383 kts | 345° |
| 2026-05-07 16:11 | 44.44634 | -73.49309 | 20538 ft | 381 kts | 345° |
| 2026-05-07 16:11 | 44.47278 | -73.49620 | 20085 ft | 381 kts | 345° |
| 2026-05-07 16:11 | 44.49915 | -73.49929 | 19655 ft | 379 kts | 345° |
| 2026-05-07 16:11 | 44.52539 | -73.50235 | 19226 ft | 378 kts | 345° |
| 2026-05-07 16:12 | 44.55168 | -73.50541 | 18789 ft | 377 kts | 345° |
| 2026-05-07 16:12 | 44.57780 | -73.50846 | 18393 ft | 376 kts | 346° |
| 2026-05-07 16:12 | 44.60394 | -73.51152 | 17915 ft | 376 kts | 346° |
| 2026-05-07 16:12 | 44.62968 | -73.51453 | 17456 ft | 375 kts | 346° |
| 2026-05-07 16:13 | 44.65548 | -73.51753 | 17115 ft | 370 kts | 346° |
| 2026-05-07 16:13 | 44.68105 | -73.52051 | 16687 ft | 368 kts | 347° |
| 2026-05-07 16:13 | 44.70648 | -73.52350 | 16268 ft | 366 kts | 347° |
| 2026-05-07 16:13 | 44.73181 | -73.52649 | 15827 ft | 364 kts | 347° |
| 2026-05-07 16:14 | 44.75701 | -73.52947 | 15404 ft | 362 kts | 348° |
| 2026-05-07 16:14 | 44.78208 | -73.53243 | 14994 ft | 361 kts | 348° |
| 2026-05-07 16:14 | 44.80709 | -73.53539 | 14565 ft | 359 kts | 348° |
| 2026-05-07 16:14 | 44.83200 | -73.53834 | 14136 ft | 358 kts | 349° |
| 2026-05-07 16:15 | 44.85677 | -73.54127 | 13706 ft | 356 kts | 349° |
| 2026-05-07 16:15 | 44.88091 | -73.54397 | 13232 ft | 340 kts | 349° |
| 2026-05-07 16:15 | 44.90431 | -73.54649 | 12834 ft | 334 kts | 349° |
| 2026-05-07 16:15 | 44.92708 | -73.54897 | 12434 ft | 331 kts | 349° |
| 2026-05-07 16:16 | 44.94992 | -73.55148 | 12036 ft | 328 kts | 349° |
| 2026-05-07 16:16 | 44.97253 | -73.55398 | 11646 ft | 325 kts | 350° |
| 2026-05-07 16:16 | 44.99503 | -73.55647 | 11261 ft | 322 kts | 350° |
| 2026-05-07 16:16 | 45.01723 | -73.55892 | 10875 ft | 319 kts | 350° |
| 2026-05-07 16:17 | 45.03927 | -73.56135 | 10566 ft | 314 kts | 350° |
| 2026-05-07 16:17 | 45.06066 | -73.56368 | 10429 ft | 303 kts | 350° |
| 2026-05-07 16:17 | 45.08137 | -73.56594 | 10295 ft | 293 kts | 350° |
| 2026-05-07 16:17 | 45.10142 | -73.56815 | 10174 ft | 284 kts | 350° |
| 2026-05-07 16:18 | 45.12078 | -73.57027 | 10046 ft | 274 kts | 350° |
| 2026-05-07 16:18 | 45.13950 | -73.57233 | 9882 ft | 267 kts | 349° |
| 2026-05-07 16:18 | 45.15798 | -73.57439 | 9591 ft | 265 kts | 350° |
| 2026-05-07 16:18 | 45.17603 | -73.57641 | 9303 ft | 263 kts | 350° |
| 2026-05-07 16:19 | 45.19417 | -73.57843 | 9011 ft | 260 kts | 350° |
| 2026-05-07 16:19 | 45.21210 | -73.58042 | 8732 ft | 257 kts | 350° |
| 2026-05-07 16:19 | 45.22983 | -73.58239 | 8448 ft | 254 kts | 350° |
| 2026-05-07 16:19 | 45.24738 | -73.58433 | 8168 ft | 252 kts | 350° |
| 2026-05-07 16:20 | 45.26479 | -73.58625 | 7906 ft | 251 kts | 350° |
| 2026-05-07 16:20 | 45.28225 | -73.58819 | 7641 ft | 251 kts | 350° |
| 2026-05-07 16:20 | 45.29974 | -73.59015 | 7358 ft | 253 kts | 351° |
| 2026-05-07 16:20 | 45.31730 | -73.59209 | 7092 ft | 254 kts | 350° |
| 2026-05-07 16:21 | 45.33495 | -73.59402 | 6824 ft | 254 kts | 351° |
| 2026-05-07 16:21 | 45.35264 | -73.59597 | 6491 ft | 256 kts | 351° |
| 2026-05-07 16:21 | 45.37008 | -73.59788 | 6317 ft | 254 kts | 351° |
| 2026-05-07 16:21 | 45.38762 | -73.59911 | 6048 ft | 252 kts | 1° |
| 2026-05-07 16:22 | 45.40442 | -73.59035 | 5557 ft | 266 kts | 30° |
| 2026-05-07 16:22 | 45.41944 | -73.57509 | 5335 ft | 263 kts | 30° |
| 2026-05-07 16:22 | 45.43435 | -73.56063 | 5257 ft | 256 kts | 30° |
| 2026-05-07 16:22 | 45.44891 | -73.54665 | 5144 ft | 249 kts | 30° |
| 2026-05-07 16:23 | 45.46313 | -73.53299 | 5032 ft | 244 kts | 29° |
| 2026-05-07 16:23 | 45.47718 | -73.51948 | 4814 ft | 243 kts | 29° |
| 2026-05-07 16:23 | 45.49117 | -73.50600 | 4599 ft | 242 kts | 29° |
| 2026-05-07 16:23 | 45.50522 | -73.49249 | 4360 ft | 243 kts | 29° |
| 2026-05-07 16:24 | 45.51905 | -73.47914 | 4149 ft | 242 kts | 29° |
| 2026-05-07 16:24 | 45.53293 | -73.46572 | 4028 ft | 238 kts | 30° |
| 2026-05-07 16:24 | 45.54639 | -73.45270 | 3981 ft | 232 kts | 29° |
| 2026-05-07 16:24 | 45.55972 | -73.43983 | 3971 ft | 229 kts | 29° |
| 2026-05-07 16:25 | 45.57254 | -73.42596 | 3948 ft | 234 kts | 37° |
| 2026-05-07 16:25 | 45.58465 | -73.41024 | 3845 ft | 235 kts | 39° |
| 2026-05-07 16:25 | 45.59683 | -73.39581 | 3683 ft | 216 kts | 19° |
| 2026-05-07 16:25 | 45.61026 | -73.39300 | 3652 ft | 185 kts | 341° |
| 2026-05-07 16:26 | 45.62179 | -73.40003 | 3587 ft | 178 kts | 320° |
| 2026-05-07 16:26 | 45.63040 | -73.41209 | 3498 ft | 170 kts | 300° |
| 2026-05-07 16:26 | 45.63566 | -73.42674 | 3419 ft | 166 kts | 284° |
| 2026-05-07 16:26 | 45.63662 | -73.43763 | 3366 ft | 163 kts | 266° |
| 2026-05-07 16:27 | 45.63555 | -73.45899 | 3291 ft | 164 kts | 267° |
| 2026-05-07 16:27 | 45.63493 | -73.47536 | 3246 ft | 166 kts | 267° |
| 2026-05-07 16:27 | 45.63428 | -73.49180 | 3178 ft | 165 kts | 267° |
| 2026-05-07 16:27 | 45.63362 | -73.50807 | 3100 ft | 163 kts | 267° |
| 2026-05-07 16:28 | 45.63287 | -73.52427 | 3031 ft | 163 kts | 262° |
| 2026-05-07 16:28 | 45.62792 | -73.53865 | 3005 ft | 166 kts | 231° |
| 2026-05-07 16:28 | 45.61996 | -73.55101 | 3016 ft | 169 kts | 234° |
| 2026-05-07 16:28 | 45.61250 | -73.56361 | 3022 ft | 162 kts | 233° |
| 2026-05-07 16:29 | 45.60486 | -73.57519 | 2997 ft | 159 kts | 230° |
| 2026-05-07 16:29 | 45.59694 | -73.58618 | 3000 ft | 160 kts | 229° |
| 2026-05-07 16:29 | 45.59155 | -73.59343 | 3010 ft | 161 kts | 229° |
| 2026-05-07 16:29 | 45.58059 | -73.60798 | 2805 ft | 163 kts | 227° |
| 2026-05-07 16:30 | 45.57230 | -73.61892 | 2581 ft | 162 kts | 227° |
| 2026-05-07 16:30 | 45.56398 | -73.62982 | 2372 ft | 161 kts | 227° |
| 2026-05-07 16:30 | 45.55587 | -73.64050 | 2125 ft | 155 kts | 228° |
| 2026-05-07 16:30 | 45.55061 | -73.64742 | 1975 ft | 151 kts | 229° |
| 2026-05-07 16:31 | 45.54269 | -73.65790 | 1799 ft | 160 kts | 227° |
| 2026-05-07 16:31 | 45.53456 | -73.66857 | 1545 ft | 160 kts | 229° |
| 2026-05-07 16:31 | 45.52671 | -73.67886 | 1346 ft | 146 kts | 228° |
| 2026-05-07 16:31 | 45.51968 | -73.68810 | 1133 ft | 132 kts | 228° |
| 2026-05-07 16:32 | 45.51296 | -73.69695 | 978 ft | 131 kts | 229° |
| 2026-05-07 16:32 | 45.50615 | -73.70593 | 770 ft | 134 kts | 228° |
| 2026-05-07 16:32 | 45.49933 | -73.71486 | 588 ft | 131 kts | 228° |
| 2026-05-07 16:32 | 45.49258 | -73.72364 | 401 ft | 130 kts | 227° |
| 2026-05-07 16:33 | 45.48603 | -73.73224 | 235 ft | 129 kts | 229° |
| 2026-05-07 16:33 | 45.47933 | -73.74094 | 130 ft | 126 kts | 226° |
| 2026-05-07 16:33 | 45.47404 | -73.74834 | 119 ft | 80 kts | 221° |
| 2026-05-07 16:33 | 45.47142 | -73.75146 | 121 ft | 40 kts | 220° |
| 2026-05-07 16:34 | 45.46944 | -73.75398 | 118 ft | 36 kts | 223° |
| 2026-05-07 16:34 | 45.46854 | -73.75516 | 116 ft | 15 kts | 220° |
| 2026-05-07 16:34 | 45.46760 | -73.75578 | 121 ft | 15 kts | 193° |
| 2026-05-07 16:34 | 45.46646 | -73.75616 | 121 ft | 22 kts | 193° |
| 2026-05-07 16:35 | 45.46469 | -73.75671 | 120 ft | 25 kts | 193° |
| 2026-05-07 16:35 | 45.46342 | -73.75714 | 116 ft | 18 kts | 193° |
| 2026-05-07 16:35 | 45.46226 | -73.75724 | 116 ft | 13 kts | 178° |
| 2026-05-07 16:35 | 45.46215 | -73.75723 | 116 ft | 1 kts | 178° |
| 2026-05-07 16:36 | 45.46203 | -73.75722 | 116 ft | 3 kts | 178° |
| 2026-05-07 16:36 | 45.46178 | -73.75721 | 116 ft | 5 kts | 174° |
| 2026-05-07 16:36 | 45.46145 | -73.75699 | 114 ft | 6 kts | 135° |
| 2026-05-07 16:36 | 45.46136 | -73.75643 | 113 ft | 7 kts | 91° |
| 2026-05-07 16:37 | 45.46137 | -73.75568 | 116 ft | 8 kts | 89° |
| 2026-05-07 16:37 | 45.46137 | -73.75485 | 116 ft | 8 kts | 90° |
| 2026-05-07 16:37 | 45.46118 | -73.75408 | 113 ft | 8 kts | 134° |
| 2026-05-07 16:37 | 45.46087 | -73.75392 | 114 ft | 0 kts | 162° |
| 2026-05-07 16:38 | 45.46068 | -73.75379 | 116 ft | 8 kts | 148° |
| 2026-05-07 16:38 | 45.46021 | -73.75274 | 115 ft | 15 kts | 113° |
| 2026-05-07 16:38 | 45.46006 | -73.75186 | 116 ft | 7 kts | 109° |
| 2026-05-07 16:38 | 45.45972 | -73.75142 | 115 ft | 4 kts | 155° |
| 2026-05-07 16:39 | 45.45963 | -73.75141 | 114 ft | 2 kts | 175° |
| 2026-05-07 16:39 | 45.45952 | -73.75140 | 113 ft | 1 kts | 175° |
| 2026-05-07 16:39 | 45.45944 | -73.75139 | 114 ft | 0 kts | 176° |